Hauptseite
METAR-TAF:

METAR-TAF

Flughäfen :

Woodvale, England

Breite: 53-34-54N, Länge: 003-03-20W, Höhe: 11 m

Beobachtung

Neuester Wetterbericht von vor 43 Minuten, um 15:20 UTC
Wind 8 kt aus Nord/Nordwest
Temperatur 12°C
Luftfeuchtigkeit 67%
Luftdruck 1022 hPa
Sichtweite 10 km oder mehr
Aufgelockert bewölkt in der Höhe von 3500 ft

METAR: EGOW 211520Z 34008KT 9999 SCT035 12/06 Q1022 RMK BLU

Zeit: 17:03 (16:03 UTC)

Prognose

Neuester Wetterbericht von vor 2 Stunden und 10 Minuten, um 13:53 UTC
Gültige Prognose vom 21 um 15 UTC bis 21 um 18 UTC
Wind 7 kt aus Nordwest
Sichtweite 10 km oder mehr
Leicht bewölkt in der Höhe von 4000 ft

TAF: EGOW 211353Z 2115/2118 32007KT 9999 FEW040

Wetterbeobachtungen und Prognosen von mehr als 4000 Flughäfen (METAR und TAF Bericht).

Die verfügbaren Stationen werden durch gelbe und rote Markierungen auf der Karte dargestellt.

Führen Sie die Maus auf sie, um den Namen der Station zu sehen.

Darauf klicken, um die Beobachtung von Wetterbeobachtungen und Prognosen zu sehen.

Um die Karte zu ändern : klicken Sie auf den grünen Tasten mit einem schwarzen Kreuz Zum Vergrößern, auf den grünen Button mit einem Gedankenstrich zu verkleinern, oder auf die grünen Pfeile für benachbarte Karten.


METAR-TAF: